sensor_id;sensor_type;location;lat;lon;timestamp;pressure;altitude;pressure_sealevel;temperature
68510;BMP180;55512;50.102;19.958;2022-12-24T00:00:07;97669.80;;;5.90
68510;BMP180;55512;50.102;19.958;2022-12-24T00:03:38;97674.20;;;5.84
68510;BMP180;55512;50.102;19.958;2022-12-24T00:06:17;97674.20;;;5.82
68510;BMP180;55512;50.102;19.958;2022-12-24T00:08:43;97671.80;;;5.80
68510;BMP180;55512;50.102;19.958;2022-12-24T00:11:08;97677.40;;;5.80
68510;BMP180;55512;50.102;19.958;2022-12-24T00:13:34;97675.00;;;5.80
68510;BMP180;55512;50.102;19.958;2022-12-24T00:16:00;97674.60;;;5.76
68510;BMP180;55512;50.102;19.958;2022-12-24T00:18:26;97673.00;;;5.74
68510;BMP180;55512;50.102;19.958;2022-12-24T00:20:51;97669.20;;;5.70
68510;BMP180;55512;50.102;19.958;2022-12-24T00:23:18;97658.80;;;5.70
68510;BMP180;55512;50.102;19.958;2022-12-24T00:25:45;97648.60;;;5.70
68510;BMP180;55512;50.102;19.958;2022-12-24T00:28:11;97648.80;;;5.60
68510;BMP180;55512;50.102;19.958;2022-12-24T00:30:39;97651.40;;;5.60
68510;BMP180;55512;50.102;19.958;2022-12-24T00:33:05;97645.00;;;5.50
68510;BMP180;55512;50.102;19.958;2022-12-24T00:35:38;97642.80;;;5.46
68510;BMP180;55512;50.102;19.958;2022-12-24T00:38:05;97641.60;;;5.40
68510;BMP180;55512;50.102;19.958;2022-12-24T00:40:31;97633.20;;;5.32
68510;BMP180;55512;50.102;19.958;2022-12-24T00:42:57;97626.60;;;5.30
68510;BMP180;55512;50.102;19.958;2022-12-24T00:45:23;97624.60;;;5.30
68510;BMP180;55512;50.102;19.958;2022-12-24T00:47:48;97629.20;;;5.30
68510;BMP180;55512;50.102;19.958;2022-12-24T00:50:16;97628.60;;;5.30
68510;BMP180;55512;50.102;19.958;2022-12-24T00:52:42;97626.00;;;5.30
68510;BMP180;55512;50.102;19.958;2022-12-24T00:55:08;97626.60;;;5.30
68510;BMP180;55512;50.102;19.958;2022-12-24T00:57:33;97625.80;;;5.30
68510;BMP180;55512;50.102;19.958;2022-12-24T00:59:59;97623.20;;;5.30
68510;BMP180;55512;50.102;19.958;2022-12-24T01:02:24;97620.40;;;5.30
68510;BMP180;55512;50.102;19.958;2022-12-24T01:04:50;97613.00;;;5.32
68510;BMP180;55512;50.102;19.958;2022-12-24T01:07:35;97604.80;;;5.30
68510;BMP180;55512;50.102;19.958;2022-12-24T01:10:01;97598.20;;;5.30
68510;BMP180;55512;50.102;19.958;2022-12-24T01:12:27;97597.60;;;5.26
68510;BMP180;55512;50.102;19.958;2022-12-24T01:14:52;97595.60;;;5.20
68510;BMP180;55512;50.102;19.958;2022-12-24T01:17:18;97592.80;;;5.20
68510;BMP180;55512;50.102;19.958;2022-12-24T01:19:43;97589.00;;;5.14
68510;BMP180;55512;50.102;19.958;2022-12-24T01:22:09;97584.60;;;5.10
68510;BMP180;55512;50.102;19.958;2022-12-24T01:24:35;97577.60;;;5.10
68510;BMP180;55512;50.102;19.958;2022-12-24T01:27:00;97584.80;;;5.10
68510;BMP180;55512;50.102;19.958;2022-12-24T01:29:25;97580.60;;;5.00
68510;BMP180;55512;50.102;19.958;2022-12-24T01:31:51;97581.80;;;5.00
68510;BMP180;55512;50.102;19.958;2022-12-24T01:34:16;97580.60;;;5.00
68510;BMP180;55512;50.102;19.958;2022-12-24T01:36:42;97572.80;;;5.00
68510;BMP180;55512;50.102;19.958;2022-12-24T01:39:07;97562.60;;;5.00
68510;BMP180;55512;50.102;19.958;2022-12-24T01:41:33;97562.60;;;5.00
68510;BMP180;55512;50.102;19.958;2022-12-24T01:44:41;97566.80;;;4.96
68510;BMP180;55512;50.102;19.958;2022-12-24T01:47:26;97570.00;;;4.90
68510;BMP180;55512;50.102;19.958;2022-12-24T01:50:00;97570.80;;;4.90
68510;BMP180;55512;50.102;19.958;2022-12-24T01:52:35;97573.80;;;4.90
68510;BMP180;55512;50.102;19.958;2022-12-24T01:55:08;97568.20;;;4.90
68510;BMP180;55512;50.102;19.958;2022-12-24T01:57:51;97574.20;;;4.90
68510;BMP180;55512;50.102;19.958;2022-12-24T02:00:18;97567.40;;;5.00
68510;BMP180;55512;50.102;19.958;2022-12-24T02:02:47;97571.80;;;5.00
68510;BMP180;55512;50.102;19.958;2022-12-24T02:05:30;97576.80;;;5.00
68510;BMP180;55512;50.102;19.958;2022-12-24T02:07:59;97573.20;;;5.00
68510;BMP180;55512;50.102;19.958;2022-12-24T02:10:26;97572.40;;;5.00
68510;BMP180;55512;50.102;19.958;2022-12-24T02:12:52;97572.20;;;5.00
68510;BMP180;55512;50.102;19.958;2022-12-24T02:15:19;97572.00;;;5.00
68510;BMP180;55512;50.102;19.958;2022-12-24T02:18:03;97573.60;;;5.00
68510;BMP180;55512;50.102;19.958;2022-12-24T02:27:35;97560.80;;;5.00
68510;BMP180;55512;50.102;19.958;2022-12-24T02:30:09;97558.40;;;5.00
68510;BMP180;55512;50.102;19.958;2022-12-24T02:36:23;97553.00;;;5.00
68510;BMP180;55512;50.102;19.958;2022-12-24T02:39:04;97550.60;;;5.00
68510;BMP180;55512;50.102;19.958;2022-12-24T02:41:34;97561.40;;;5.00
68510;BMP180;55512;50.102;19.958;2022-12-24T02:44:24;97554.60;;;5.00
68510;BMP180;55512;50.102;19.958;2022-12-24T02:46:51;97546.20;;;5.00
68510;BMP180;55512;50.102;19.958;2022-12-24T02:49:17;97560.40;;;5.10
68510;BMP180;55512;50.102;19.958;2022-12-24T02:51:42;97549.60;;;5.10
68510;BMP180;55512;50.102;19.958;2022-12-24T02:54:09;97550.60;;;5.10
68510;BMP180;55512;50.102;19.958;2022-12-24T03:03:11;97558.80;;;5.12
68510;BMP180;55512;50.102;19.958;2022-12-24T03:05:55;97559.00;;;5.20
68510;BMP180;55512;50.102;19.958;2022-12-24T03:12:13;97558.20;;;5.20
68510;BMP180;55512;50.102;19.958;2022-12-24T03:14:40;97545.20;;;5.20
68510;BMP180;55512;50.102;19.958;2022-12-24T03:17:08;97562.20;;;5.20
68510;BMP180;55512;50.102;19.958;2022-12-24T03:19:35;97568.00;;;5.20
68510;BMP180;55512;50.102;19.958;2022-12-24T03:22:06;97552.20;;;5.20
68510;BMP180;55512;50.102;19.958;2022-12-24T03:24:33;97544.60;;;5.26
68510;BMP180;55512;50.102;19.958;2022-12-24T03:27:00;97575.40;;;5.30
68510;BMP180;55512;50.102;19.958;2022-12-24T03:29:26;97578.60;;;5.30
68510;BMP180;55512;50.102;19.958;2022-12-24T03:32:00;97565.00;;;5.24
68510;BMP180;55512;50.102;19.958;2022-12-24T03:34:26;97562.20;;;5.20
68510;BMP180;55512;50.102;19.958;2022-12-24T03:36:52;97560.40;;;5.20
68510;BMP180;55512;50.102;19.958;2022-12-24T03:39:17;97565.20;;;5.20
68510;BMP180;55512;50.102;19.958;2022-12-24T03:41:43;97581.60;;;5.20
68510;BMP180;55512;50.102;19.958;2022-12-24T03:44:08;97578.40;;;5.20
68510;BMP180;55512;50.102;19.958;2022-12-24T03:46:34;97572.00;;;5.20
68510;BMP180;55512;50.102;19.958;2022-12-24T03:49:00;97568.80;;;5.20
68510;BMP180;55512;50.102;19.958;2022-12-24T03:51:26;97571.60;;;5.18
68510;BMP180;55512;50.102;19.958;2022-12-24T03:53:54;97577.20;;;5.20
68510;BMP180;55512;50.102;19.958;2022-12-24T03:56:20;97575.80;;;5.16
68510;BMP180;55512;50.102;19.958;2022-12-24T03:58:46;97570.80;;;5.18
68510;BMP180;55512;50.102;19.958;2022-12-24T04:01:11;97584.40;;;5.20
68510;BMP180;55512;50.102;19.958;2022-12-24T04:03:37;97587.00;;;5.20
68510;BMP180;55512;50.102;19.958;2022-12-24T04:06:08;97584.80;;;5.20
68510;BMP180;55512;50.102;19.958;2022-12-24T04:08:35;97584.80;;;5.20
68510;BMP180;55512;50.102;19.958;2022-12-24T04:11:03;97581.00;;;5.20
68510;BMP180;55512;50.102;19.958;2022-12-24T04:13:29;97578.40;;;5.20
68510;BMP180;55512;50.102;19.958;2022-12-24T04:15:59;97576.00;;;5.20
68510;BMP180;55512;50.102;19.958;2022-12-24T04:18:26;97574.40;;;5.20
68510;BMP180;55512;50.102;19.958;2022-12-24T04:20:53;97573.80;;;5.20
68510;BMP180;55512;50.102;19.958;2022-12-24T04:23:19;97580.80;;;5.20
68510;BMP180;55512;50.102;19.958;2022-12-24T04:25:44;97578.40;;;5.20
68510;BMP180;55512;50.102;19.958;2022-12-24T04:28:11;97580.20;;;5.20
68510;BMP180;55512;50.102;19.958;2022-12-24T04:30:38;97579.80;;;5.20
68510;BMP180;55512;50.102;19.958;2022-12-24T04:33:04;97592.20;;;5.20
68510;BMP180;55512;50.102;19.958;2022-12-24T04:35:30;97590.80;;;5.26
68510;BMP180;55512;50.102;19.958;2022-12-24T04:37:55;97586.20;;;5.30
68510;BMP180;55512;50.102;19.958;2022-12-24T04:40:21;97596.00;;;5.30
68510;BMP180;55512;50.102;19.958;2022-12-24T04:42:46;97593.00;;;5.40
68510;BMP180;55512;50.102;19.958;2022-12-24T04:45:12;97600.60;;;5.46
68510;BMP180;55512;50.102;19.958;2022-12-24T04:47:37;97596.80;;;5.50
68510;BMP180;55512;50.102;19.958;2022-12-24T04:50:03;97582.60;;;5.52
68510;BMP180;55512;50.102;19.958;2022-12-24T04:52:28;97585.80;;;5.60
68510;BMP180;55512;50.102;19.958;2022-12-24T04:54:54;97587.40;;;5.60
68510;BMP180;55512;50.102;19.958;2022-12-24T04:57:20;97583.00;;;5.60
68510;BMP180;55512;50.102;19.958;2022-12-24T04:59:45;97584.40;;;5.66
68510;BMP180;55512;50.102;19.958;2022-12-24T05:02:11;97587.00;;;5.70
68510;BMP180;55512;50.102;19.958;2022-12-24T05:04:36;97582.60;;;5.70
68510;BMP180;55512;50.102;19.958;2022-12-24T05:07:02;97581.80;;;5.70
68510;BMP180;55512;50.102;19.958;2022-12-24T05:09:27;97585.60;;;5.70
68510;BMP180;55512;50.102;19.958;2022-12-24T05:11:53;97583.80;;;5.72
68510;BMP180;55512;50.102;19.958;2022-12-24T05:14:18;97583.60;;;5.80
68510;BMP180;55512;50.102;19.958;2022-12-24T05:16:44;97579.80;;;5.80
68510;BMP180;55512;50.102;19.958;2022-12-24T05:19:09;97581.20;;;5.80
68510;BMP180;55512;50.102;19.958;2022-12-24T05:21:35;97584.80;;;5.80
68510;BMP180;55512;50.102;19.958;2022-12-24T05:24:00;97590.80;;;5.80
68510;BMP180;55512;50.102;19.958;2022-12-24T05:27:01;97591.80;;;5.90
68510;BMP180;55512;50.102;19.958;2022-12-24T05:29:26;97595.40;;;5.90
68510;BMP180;55512;50.102;19.958;2022-12-24T05:31:51;97599.00;;;6.00
68510;BMP180;55512;50.102;19.958;2022-12-24T05:34:17;97601.80;;;6.00
68510;BMP180;55512;50.102;19.958;2022-12-24T05:36:43;97603.00;;;6.00
68510;BMP180;55512;50.102;19.958;2022-12-24T05:39:14;97604.80;;;6.00
68510;BMP180;55512;50.102;19.958;2022-12-24T05:41:40;97604.20;;;6.00
68510;BMP180;55512;50.102;19.958;2022-12-24T05:44:06;97603.60;;;6.00
68510;BMP180;55512;50.102;19.958;2022-12-24T05:46:31;97604.00;;;5.96
68510;BMP180;55512;50.102;19.958;2022-12-24T05:48:57;97601.80;;;5.94
68510;BMP180;55512;50.102;19.958;2022-12-24T05:51:22;97604.40;;;5.98
68510;BMP180;55512;50.102;19.958;2022-12-24T05:53:50;97611.60;;;6.00
68510;BMP180;55512;50.102;19.958;2022-12-24T05:56:20;97607.80;;;6.00
68510;BMP180;55512;50.102;19.958;2022-12-24T05:58:47;97612.60;;;6.00
68510;BMP180;55512;50.102;19.958;2022-12-24T06:01:14;97613.80;;;6.00
68510;BMP180;55512;50.102;19.958;2022-12-24T06:03:39;97613.40;;;6.08
68510;BMP180;55512;50.102;19.958;2022-12-24T06:06:20;97618.00;;;6.08
68510;BMP180;55512;50.102;19.958;2022-12-24T06:08:47;97620.60;;;6.10
68510;BMP180;55512;50.102;19.958;2022-12-24T06:11:16;97613.80;;;6.10
68510;BMP180;55512;50.102;19.958;2022-12-24T06:13:42;97618.40;;;6.12
68510;BMP180;55512;50.102;19.958;2022-12-24T06:16:13;97621.80;;;6.20
68510;BMP180;55512;50.102;19.958;2022-12-24T06:18:40;97622.20;;;6.20
68510;BMP180;55512;50.102;19.958;2022-12-24T06:21:06;97624.20;;;6.20
68510;BMP180;55512;50.102;19.958;2022-12-24T06:23:35;97624.60;;;6.20
68510;BMP180;55512;50.102;19.958;2022-12-24T06:26:03;97627.80;;;6.20
68510;BMP180;55512;50.102;19.958;2022-12-24T06:28:32;97631.20;;;6.28
68510;BMP180;55512;50.102;19.958;2022-12-24T06:30:59;97630.00;;;6.30
68510;BMP180;55512;50.102;19.958;2022-12-24T06:33:28;97632.20;;;6.30
68510;BMP180;55512;50.102;19.958;2022-12-24T06:35:54;97634.60;;;6.30
68510;BMP180;55512;50.102;19.958;2022-12-24T06:38:20;97641.20;;;6.30
68510;BMP180;55512;50.102;19.958;2022-12-24T06:40:46;97639.40;;;6.30
68510;BMP180;55512;50.102;19.958;2022-12-24T06:43:14;97644.80;;;6.30
68510;BMP180;55512;50.102;19.958;2022-12-24T06:45:45;97648.00;;;6.30
68510;BMP180;55512;50.102;19.958;2022-12-24T06:48:11;97652.20;;;6.30
68510;BMP180;55512;50.102;19.958;2022-12-24T06:50:38;97655.00;;;6.30
68510;BMP180;55512;50.102;19.958;2022-12-24T06:53:03;97660.20;;;6.32
68510;BMP180;55512;50.102;19.958;2022-12-24T06:55:29;97659.20;;;6.40
68510;BMP180;55512;50.102;19.958;2022-12-24T06:57:54;97663.60;;;6.40
68510;BMP180;55512;50.102;19.958;2022-12-24T07:00:20;97668.40;;;6.40
68510;BMP180;55512;50.102;19.958;2022-12-24T07:02:48;97675.80;;;6.46
68510;BMP180;55512;50.102;19.958;2022-12-24T07:05:14;97683.00;;;6.46
68510;BMP180;55512;50.102;19.958;2022-12-24T07:07:43;97689.60;;;6.46
68510;BMP180;55512;50.102;19.958;2022-12-24T07:10:14;97696.60;;;6.50
68510;BMP180;55512;50.102;19.958;2022-12-24T07:12:40;97692.80;;;6.50
68510;BMP180;55512;50.102;19.958;2022-12-24T07:15:07;97690.60;;;6.50
68510;BMP180;55512;50.102;19.958;2022-12-24T07:17:33;97691.00;;;6.50
68510;BMP180;55512;50.102;19.958;2022-12-24T07:19:58;97688.60;;;6.50
68510;BMP180;55512;50.102;19.958;2022-12-24T07:22:24;97682.20;;;6.50
68510;BMP180;55512;50.102;19.958;2022-12-24T07:24:49;97687.60;;;6.42
68510;BMP180;55512;50.102;19.958;2022-12-24T07:27:15;97689.60;;;6.44
68510;BMP180;55512;50.102;19.958;2022-12-24T07:29:41;97698.00;;;6.40
68510;BMP180;55512;50.102;19.958;2022-12-24T07:32:06;97697.80;;;6.40
68510;BMP180;55512;50.102;19.958;2022-12-24T07:34:32;97696.80;;;6.40
68510;BMP180;55512;50.102;19.958;2022-12-24T07:36:58;97695.00;;;6.40
68510;BMP180;55512;50.102;19.958;2022-12-24T07:39:23;97698.00;;;6.40
68510;BMP180;55512;50.102;19.958;2022-12-24T07:41:49;97695.00;;;6.50
68510;BMP180;55512;50.102;19.958;2022-12-24T07:44:15;97702.00;;;6.50
68510;BMP180;55512;50.102;19.958;2022-12-24T07:46:42;97702.40;;;6.50
68510;BMP180;55512;50.102;19.958;2022-12-24T07:49:07;97705.40;;;6.50
68510;BMP180;55512;50.102;19.958;2022-12-24T07:51:33;97709.00;;;6.50
68510;BMP180;55512;50.102;19.958;2022-12-24T07:53:58;97707.20;;;6.50
68510;BMP180;55512;50.102;19.958;2022-12-24T07:56:24;97708.40;;;6.50
68510;BMP180;55512;50.102;19.958;2022-12-24T07:58:50;97707.20;;;6.50
68510;BMP180;55512;50.102;19.958;2022-12-24T08:01:16;97710.60;;;6.56
68510;BMP180;55512;50.102;19.958;2022-12-24T08:03:42;97710.40;;;6.60
68510;BMP180;55512;50.102;19.958;2022-12-24T08:06:08;97712.40;;;6.70
68510;BMP180;55512;50.102;19.958;2022-12-24T08:08:33;97719.60;;;6.70
68510;BMP180;55512;50.102;19.958;2022-12-24T08:11:02;97724.20;;;6.78
68510;BMP180;55512;50.102;19.958;2022-12-24T08:13:28;97727.20;;;6.84
68510;BMP180;55512;50.102;19.958;2022-12-24T08:15:54;97726.60;;;6.90
68510;BMP180;55512;50.102;19.958;2022-12-24T08:18:20;97730.20;;;7.00
68510;BMP180;55512;50.102;19.958;2022-12-24T08:20:45;97734.60;;;7.04
68510;BMP180;55512;50.102;19.958;2022-12-24T08:23:10;97735.00;;;7.10
68510;BMP180;55512;50.102;19.958;2022-12-24T08:25:37;97740.20;;;7.20
68510;BMP180;55512;50.102;19.958;2022-12-24T08:28:05;97741.80;;;7.30
68510;BMP180;55512;50.102;19.958;2022-12-24T08:30:31;97751.40;;;7.40
68510;BMP180;55512;50.102;19.958;2022-12-24T08:32:56;97746.60;;;7.40
68510;BMP180;55512;50.102;19.958;2022-12-24T08:35:22;97748.80;;;7.52
68510;BMP180;55512;50.102;19.958;2022-12-24T08:37:47;97756.00;;;7.60
68510;BMP180;55512;50.102;19.958;2022-12-24T08:40:13;97764.60;;;7.70
68510;BMP180;55512;50.102;19.958;2022-12-24T08:42:38;97768.60;;;7.80
68510;BMP180;55512;50.102;19.958;2022-12-24T08:45:05;97770.60;;;7.90
68510;BMP180;55512;50.102;19.958;2022-12-24T08:47:30;97774.80;;;7.90
68510;BMP180;55512;50.102;19.958;2022-12-24T08:49:56;97776.20;;;8.00
68510;BMP180;55512;50.102;19.958;2022-12-24T08:52:21;97767.40;;;8.10
68510;BMP180;55512;50.102;19.958;2022-12-24T08:54:47;97771.80;;;8.10
68510;BMP180;55512;50.102;19.958;2022-12-24T08:57:12;97772.00;;;8.10
68510;BMP180;55512;50.102;19.958;2022-12-24T08:59:38;97769.00;;;8.20
68510;BMP180;55512;50.102;19.958;2022-12-24T09:02:04;97767.80;;;8.20
68510;BMP180;55512;50.102;19.958;2022-12-24T09:04:30;97774.60;;;8.30
68510;BMP180;55512;50.102;19.958;2022-12-24T09:06:56;97775.60;;;8.32
68510;BMP180;55512;50.102;19.958;2022-12-24T09:09:21;97779.40;;;8.40
68510;BMP180;55512;50.102;19.958;2022-12-24T09:11:46;97773.40;;;8.40
68510;BMP180;55512;50.102;19.958;2022-12-24T09:14:12;97785.00;;;8.42
68510;BMP180;55512;50.102;19.958;2022-12-24T09:16:38;97792.80;;;8.42
68510;BMP180;55512;50.102;19.958;2022-12-24T09:19:03;97799.60;;;8.50
68510;BMP180;55512;50.102;19.958;2022-12-24T09:21:29;97797.00;;;8.50
68510;BMP180;55512;50.102;19.958;2022-12-24T09:23:55;97799.80;;;8.50
68510;BMP180;55512;50.102;19.958;2022-12-24T09:26:26;97794.80;;;8.50
68510;BMP180;55512;50.102;19.958;2022-12-24T09:28:52;97804.40;;;8.56
68510;BMP180;55512;50.102;19.958;2022-12-24T09:31:18;97807.20;;;8.60
68510;BMP180;55512;50.102;19.958;2022-12-24T09:33:46;97806.20;;;8.60
68510;BMP180;55512;50.102;19.958;2022-12-24T09:36:13;97803.60;;;8.70
68510;BMP180;55512;50.102;19.958;2022-12-24T09:38:38;97805.00;;;8.70
68510;BMP180;55512;50.102;19.958;2022-12-24T09:43:59;97811.00;;;8.70
68510;BMP180;55512;50.102;19.958;2022-12-24T09:46:39;97805.80;;;8.70
68510;BMP180;55512;50.102;19.958;2022-12-24T09:49:20;97817.80;;;8.70
68510;BMP180;55512;50.102;19.958;2022-12-24T09:51:57;97825.00;;;8.70
68510;BMP180;55512;50.102;19.958;2022-12-24T09:54:33;97829.00;;;8.70
68510;BMP180;55512;50.102;19.958;2022-12-24T09:57:06;97829.60;;;8.70
68510;BMP180;55512;50.102;19.958;2022-12-24T09:59:41;97827.80;;;8.60
68510;BMP180;55512;50.102;19.958;2022-12-24T10:02:17;97833.20;;;8.60
68510;BMP180;55512;50.102;19.958;2022-12-24T10:04:45;97827.80;;;8.60
68510;BMP180;55512;50.102;19.958;2022-12-24T10:10:20;97839.60;;;8.62
68510;BMP180;55512;50.102;19.958;2022-12-24T10:16:12;97847.00;;;8.60
68510;BMP180;55512;50.102;19.958;2022-12-24T10:19:13;97850.40;;;8.60
68510;BMP180;55512;50.102;19.958;2022-12-24T10:27:34;97857.40;;;8.54
68510;BMP180;55512;50.102;19.958;2022-12-24T10:30:14;97854.80;;;8.56
68510;BMP180;55512;50.102;19.958;2022-12-24T10:32:40;97863.20;;;8.50
68510;BMP180;55512;50.102;19.958;2022-12-24T10:37:39;97856.40;;;8.50
68510;BMP180;55512;50.102;19.958;2022-12-24T10:40:13;97854.20;;;8.50
68510;BMP180;55512;50.102;19.958;2022-12-24T10:42:41;97852.80;;;8.50
68510;BMP180;55512;50.102;19.958;2022-12-24T10:45:15;97862.40;;;8.50
68510;BMP180;55512;50.102;19.958;2022-12-24T10:47:43;97860.00;;;8.60
68510;BMP180;55512;50.102;19.958;2022-12-24T10:50:38;97847.40;;;8.60
68510;BMP180;55512;50.102;19.958;2022-12-24T10:53:27;97856.40;;;8.60
68510;BMP180;55512;50.102;19.958;2022-12-24T10:56:05;97860.80;;;8.70
68510;BMP180;55512;50.102;19.958;2022-12-24T10:58:32;97867.60;;;8.70
68510;BMP180;55512;50.102;19.958;2022-12-24T11:00:58;97866.00;;;8.80
68510;BMP180;55512;50.102;19.958;2022-12-24T11:03:37;97869.20;;;8.90
68510;BMP180;55512;50.102;19.958;2022-12-24T11:06:15;97875.20;;;8.90
68510;BMP180;55512;50.102;19.958;2022-12-24T11:08:46;97871.00;;;9.00
68510;BMP180;55512;50.102;19.958;2022-12-24T11:11:20;97874.00;;;9.00
68510;BMP180;55512;50.102;19.958;2022-12-24T11:16:20;97877.40;;;9.10
68510;BMP180;55512;50.102;19.958;2022-12-24T11:18:51;97883.80;;;9.10
68510;BMP180;55512;50.102;19.958;2022-12-24T11:23:53;97893.20;;;9.18
68510;BMP180;55512;50.102;19.958;2022-12-24T11:26:29;97903.20;;;9.16
68510;BMP180;55512;50.102;19.958;2022-12-24T11:29:22;97904.60;;;9.18
68510;BMP180;55512;50.102;19.958;2022-12-24T11:31:49;97913.60;;;9.12
68510;BMP180;55512;50.102;19.958;2022-12-24T11:34:30;97908.80;;;9.10
68510;BMP180;55512;50.102;19.958;2022-12-24T11:37:15;97916.20;;;9.10
68510;BMP180;55512;50.102;19.958;2022-12-24T11:39:48;97921.40;;;9.10
68510;BMP180;55512;50.102;19.958;2022-12-24T11:42:35;97927.60;;;9.10
68510;BMP180;55512;50.102;19.958;2022-12-24T11:45:13;97932.40;;;9.10
68510;BMP180;55512;50.102;19.958;2022-12-24T11:47:42;97935.80;;;9.10
68510;BMP180;55512;50.102;19.958;2022-12-24T11:52:53;97940.40;;;9.00
68510;BMP180;55512;50.102;19.958;2022-12-24T11:55:34;97945.60;;;9.02
68510;BMP180;55512;50.102;19.958;2022-12-24T12:00:50;97941.40;;;9.00
68510;BMP180;55512;50.102;19.958;2022-12-24T12:03:41;97943.80;;;9.00
68510;BMP180;55512;50.102;19.958;2022-12-24T12:06:22;97953.80;;;9.00
68510;BMP180;55512;50.102;19.958;2022-12-24T12:08:59;97954.00;;;9.00
68510;BMP180;55512;50.102;19.958;2022-12-24T12:11:27;97963.80;;;9.00
68510;BMP180;55512;50.102;19.958;2022-12-24T12:13:57;97972.80;;;9.00
68510;BMP180;55512;50.102;19.958;2022-12-24T12:16:59;97979.60;;;9.00
68510;BMP180;55512;50.102;19.958;2022-12-24T12:19:46;97979.80;;;8.90
68510;BMP180;55512;50.102;19.958;2022-12-24T12:22:47;97991.60;;;8.80
68510;BMP180;55512;50.102;19.958;2022-12-24T12:25:26;97992.00;;;8.70
68510;BMP180;55512;50.102;19.958;2022-12-24T12:27:56;97988.80;;;8.60
68510;BMP180;55512;50.102;19.958;2022-12-24T12:30:23;98008.20;;;8.60
68510;BMP180;55512;50.102;19.958;2022-12-24T12:33:21;98012.80;;;8.50
68510;BMP180;55512;50.102;19.958;2022-12-24T12:35:45;98020.00;;;8.40
68510;BMP180;55512;50.102;19.958;2022-12-24T12:38:22;98028.00;;;8.40
68510;BMP180;55512;50.102;19.958;2022-12-24T12:50:38;98043.40;;;8.38
68510;BMP180;55512;50.102;19.958;2022-12-24T12:53:23;98045.00;;;8.30
68510;BMP180;55512;50.102;19.958;2022-12-24T12:58:52;98053.80;;;8.30
68510;BMP180;55512;50.102;19.958;2022-12-24T13:01:49;98062.40;;;8.30
68510;BMP180;55512;50.102;19.958;2022-12-24T13:04:35;98062.80;;;8.28
68510;BMP180;55512;50.102;19.958;2022-12-24T13:18:47;98101.20;;;8.30
68510;BMP180;55512;50.102;19.958;2022-12-24T13:21:22;98104.60;;;8.40
68510;BMP180;55512;50.102;19.958;2022-12-24T13:23:49;98110.20;;;8.40
68510;BMP180;55512;50.102;19.958;2022-12-24T13:26:16;98116.20;;;8.40
68510;BMP180;55512;50.102;19.958;2022-12-24T13:28:43;98118.00;;;8.44
68510;BMP180;55512;50.102;19.958;2022-12-24T13:33:51;98131.00;;;8.48
68510;BMP180;55512;50.102;19.958;2022-12-24T13:36:19;98137.00;;;8.46
68510;BMP180;55512;50.102;19.958;2022-12-24T13:38:57;98133.60;;;8.46
68510;BMP180;55512;50.102;19.958;2022-12-24T13:47:00;98150.20;;;8.50
68510;BMP180;55512;50.102;19.958;2022-12-24T13:49:36;98160.80;;;8.50
68510;BMP180;55512;50.102;19.958;2022-12-24T13:54:46;98163.00;;;8.40
68510;BMP180;55512;50.102;19.958;2022-12-24T13:57:30;98164.20;;;8.30
68510;BMP180;55512;50.102;19.958;2022-12-24T14:08:24;98182.60;;;8.30
68510;BMP180;55512;50.102;19.958;2022-12-24T14:16:20;98207.80;;;8.10
68510;BMP180;55512;50.102;19.958;2022-12-24T14:19:03;98210.80;;;8.10
68510;BMP180;55512;50.102;19.958;2022-12-24T14:21:50;98220.20;;;8.10
68510;BMP180;55512;50.102;19.958;2022-12-24T14:24:23;98220.40;;;8.10
68510;BMP180;55512;50.102;19.958;2022-12-24T14:26:57;98216.60;;;8.00
68510;BMP180;55512;50.102;19.958;2022-12-24T14:29:49;98228.00;;;8.00
68510;BMP180;55512;50.102;19.958;2022-12-24T14:32:15;98225.40;;;8.00
68510;BMP180;55512;50.102;19.958;2022-12-24T14:34:42;98230.60;;;8.00
68510;BMP180;55512;50.102;19.958;2022-12-24T14:37:11;98239.60;;;7.98
68510;BMP180;55512;50.102;19.958;2022-12-24T14:39:48;98241.00;;;8.00
68510;BMP180;55512;50.102;19.958;2022-12-24T14:42:44;98249.20;;;8.00
68510;BMP180;55512;50.102;19.958;2022-12-24T14:45:59;98243.80;;;8.00
68510;BMP180;55512;50.102;19.958;2022-12-24T14:48:49;98247.60;;;8.00
68510;BMP180;55512;50.102;19.958;2022-12-24T14:56:25;98265.60;;;8.00
68510;BMP180;55512;50.102;19.958;2022-12-24T14:58:50;98276.80;;;8.00
68510;BMP180;55512;50.102;19.958;2022-12-24T15:09:32;98289.40;;;7.90
68510;BMP180;55512;50.102;19.958;2022-12-24T15:12:01;98291.80;;;7.90
68510;BMP180;55512;50.102;19.958;2022-12-24T15:14:33;98291.80;;;7.86
68510;BMP180;55512;50.102;19.958;2022-12-24T15:17:06;98293.60;;;7.80
68510;BMP180;55512;50.102;19.958;2022-12-24T15:19:40;98297.60;;;7.80
68510;BMP180;55512;50.102;19.958;2022-12-24T15:22:36;98299.80;;;7.80
68510;BMP180;55512;50.102;19.958;2022-12-24T15:25:01;98300.20;;;7.80
68510;BMP180;55512;50.102;19.958;2022-12-24T15:27:38;98303.80;;;7.80
68510;BMP180;55512;50.102;19.958;2022-12-24T15:30:15;98302.60;;;7.80
68510;BMP180;55512;50.102;19.958;2022-12-24T15:32:43;98314.40;;;7.78
68510;BMP180;55512;50.102;19.958;2022-12-24T15:38:01;98322.20;;;7.70
68510;BMP180;55512;50.102;19.958;2022-12-24T15:40:27;98325.80;;;7.70
68510;BMP180;55512;50.102;19.958;2022-12-24T15:42:53;98331.20;;;7.80
68510;BMP180;55512;50.102;19.958;2022-12-24T15:45:30;98330.40;;;7.80
68510;BMP180;55512;50.102;19.958;2022-12-24T15:48:09;98333.80;;;7.80
68510;BMP180;55512;50.102;19.958;2022-12-24T15:50:47;98343.00;;;7.86
68510;BMP180;55512;50.102;19.958;2022-12-24T15:53:20;98347.00;;;7.90
68510;BMP180;55512;50.102;19.958;2022-12-24T15:58:33;98344.80;;;7.90
68510;BMP180;55512;50.102;19.958;2022-12-24T16:06:14;98348.40;;;7.84
68510;BMP180;55512;50.102;19.958;2022-12-24T16:08:42;98345.00;;;7.80
68510;BMP180;55512;50.102;19.958;2022-12-24T16:16:18;98361.00;;;7.80
68510;BMP180;55512;50.102;19.958;2022-12-24T16:18:57;98361.00;;;7.80
68510;BMP180;55512;50.102;19.958;2022-12-24T16:21:33;98369.00;;;7.80
68510;BMP180;55512;50.102;19.958;2022-12-24T16:24:14;98373.60;;;7.80
68510;BMP180;55512;50.102;19.958;2022-12-24T16:26:41;98385.00;;;7.80
68510;BMP180;55512;50.102;19.958;2022-12-24T16:29:08;98385.80;;;7.82
68510;BMP180;55512;50.102;19.958;2022-12-24T16:31:52;98383.60;;;7.82
68510;BMP180;55512;50.102;19.958;2022-12-24T16:34:25;98388.40;;;7.80